sensor_id;sensor_type;location;lat;lon;timestamp;P1;P2;P0
39955;PMS5003;25631;51.516;-0.470;2023-11-21T00:00:36;14;12;
39955;PMS5003;25631;51.516;-0.470;2023-11-21T00:03:12;14;12;
39955;PMS5003;25631;51.516;-0.470;2023-11-21T00:05:49;15;14;
39955;PMS5003;25631;51.516;-0.470;2023-11-21T00:08:25;12;12;
39955;PMS5003;25631;51.516;-0.470;2023-11-21T00:11:02;12;11;
39955;PMS5003;25631;51.516;-0.470;2023-11-21T00:13:38;12;11;
39955;PMS5003;25631;51.516;-0.470;2023-11-21T00:16:15;11;10;
39955;PMS5003;25631;51.516;-0.470;2023-11-21T00:18:51;11;10;
39955;PMS5003;25631;51.516;-0.470;2023-11-21T00:21:28;11;11;
39955;PMS5003;25631;51.516;-0.470;2023-11-21T00:24:04;10;10;
39955;PMS5003;25631;51.516;-0.470;2023-11-21T00:26:41;11;11;
39955;PMS5003;25631;51.516;-0.470;2023-11-21T00:29:18;10;9;
39955;PMS5003;25631;51.516;-0.470;2023-11-21T00:31:54;10;10;
39955;PMS5003;25631;51.516;-0.470;2023-11-21T00:34:31;13;11;
39955;PMS5003;25631;51.516;-0.470;2023-11-21T00:37:07;11;9;
39955;PMS5003;25631;51.516;-0.470;2023-11-21T00:39:43;11;10;
39955;PMS5003;25631;51.516;-0.470;2023-11-21T00:42:20;14;9;
39955;PMS5003;25631;51.516;-0.470;2023-11-21T00:44:56;14;8;
39955;PMS5003;25631;51.516;-0.470;2023-11-21T00:47:35;9;9;
39955;PMS5003;25631;51.516;-0.470;2023-11-21T00:50:12;9;8;
39955;PMS5003;25631;51.516;-0.470;2023-11-21T00:52:48;9;8;
39955;PMS5003;25631;51.516;-0.470;2023-11-21T00:55:25;10;10;
39955;PMS5003;25631;51.516;-0.470;2023-11-21T00:58:01;11;10;
39955;PMS5003;25631;51.516;-0.470;2023-11-21T01:00:37;13;13;
39955;PMS5003;25631;51.516;-0.470;2023-11-21T01:03:14;15;13;
39955;PMS5003;25631;51.516;-0.470;2023-11-21T01:05:50;16;14;
39955;PMS5003;25631;51.516;-0.470;2023-11-21T01:08:27;13;11;
39955;PMS5003;25631;51.516;-0.470;2023-11-21T01:11:03;14;12;
39955;PMS5003;25631;51.516;-0.470;2023-11-21T01:13:40;15;12;
39955;PMS5003;25631;51.516;-0.470;2023-11-21T01:16:17;13;11;
39955;PMS5003;25631;51.516;-0.470;2023-11-21T01:18:53;12;10;
39955;PMS5003;25631;51.516;-0.470;2023-11-21T01:21:30;21;15;
39955;PMS5003;25631;51.516;-0.470;2023-11-21T01:24:07;25;16;
39955;PMS5003;25631;51.516;-0.470;2023-11-21T01:26:44;15;12;
39955;PMS5003;25631;51.516;-0.470;2023-11-21T01:29:20;12;10;
39955;PMS5003;25631;51.516;-0.470;2023-11-21T01:31:56;12;9;
39955;PMS5003;25631;51.516;-0.470;2023-11-21T01:34:32;12;12;
39955;PMS5003;25631;51.516;-0.470;2023-11-21T01:37:09;13;11;
39955;PMS5003;25631;51.516;-0.470;2023-11-21T01:39:45;14;12;
39955;PMS5003;25631;51.516;-0.470;2023-11-21T01:42:22;16;15;
39955;PMS5003;25631;51.516;-0.470;2023-11-21T01:44:58;17;15;
39955;PMS5003;25631;51.516;-0.470;2023-11-21T01:47:35;10;10;
39955;PMS5003;25631;51.516;-0.470;2023-11-21T01:50:13;12;11;
39955;PMS5003;25631;51.516;-0.470;2023-11-21T01:52:51;19;14;
39955;PMS5003;25631;51.516;-0.470;2023-11-21T01:55:28;18;16;
39955;PMS5003;25631;51.516;-0.470;2023-11-21T01:58:04;16;13;
39955;PMS5003;25631;51.516;-0.470;2023-11-21T02:00:41;13;10;
39955;PMS5003;25631;51.516;-0.470;2023-11-21T02:03:17;14;10;
39955;PMS5003;25631;51.516;-0.470;2023-11-21T02:05:54;13;10;
39955;PMS5003;25631;51.516;-0.470;2023-11-21T02:08:30;12;11;
39955;PMS5003;25631;51.516;-0.470;2023-11-21T02:11:07;10;10;
39955;PMS5003;25631;51.516;-0.470;2023-11-21T02:13:43;10;9;
39955;PMS5003;25631;51.516;-0.470;2023-11-21T02:16:20;12;12;
39955;PMS5003;25631;51.516;-0.470;2023-11-21T02:18:56;10;10;
39955;PMS5003;25631;51.516;-0.470;2023-11-21T02:21:33;10;7;
39955;PMS5003;25631;51.516;-0.470;2023-11-21T02:24:10;9;7;
39955;PMS5003;25631;51.516;-0.470;2023-11-21T02:26:47;7;7;
39955;PMS5003;25631;51.516;-0.470;2023-11-21T02:29:24;11;10;
39955;PMS5003;25631;51.516;-0.470;2023-11-21T02:32:00;13;12;
39955;PMS5003;25631;51.516;-0.470;2023-11-21T02:34:36;10;9;
39955;PMS5003;25631;51.516;-0.470;2023-11-21T02:37:13;11;9;
39955;PMS5003;25631;51.516;-0.470;2023-11-21T02:39:49;10;8;
39955;PMS5003;25631;51.516;-0.470;2023-11-21T02:42:26;9;8;
39955;PMS5003;25631;51.516;-0.470;2023-11-21T02:45:02;8;7;
39955;PMS5003;25631;51.516;-0.470;2023-11-21T02:47:39;10;9;
39955;PMS5003;25631;51.516;-0.470;2023-11-21T02:50:16;9;9;
39955;PMS5003;25631;51.516;-0.470;2023-11-21T02:52:52;8;7;
39955;PMS5003;25631;51.516;-0.470;2023-11-21T02:55:28;9;9;
39955;PMS5003;25631;51.516;-0.470;2023-11-21T02:58:05;8;8;
39955;PMS5003;25631;51.516;-0.470;2023-11-21T03:00:41;8;8;
39955;PMS5003;25631;51.516;-0.470;2023-11-21T03:03:17;6;6;
39955;PMS5003;25631;51.516;-0.470;2023-11-21T03:05:54;5;5;
39955;PMS5003;25631;51.516;-0.470;2023-11-21T03:08:30;5;5;
39955;PMS5003;25631;51.516;-0.470;2023-11-21T03:11:06;5;5;
39955;PMS5003;25631;51.516;-0.470;2023-11-21T03:13:43;8;7;
39955;PMS5003;25631;51.516;-0.470;2023-11-21T03:16:19;7;6;
39955;PMS5003;25631;51.516;-0.470;2023-11-21T03:18:55;7;6;
39955;PMS5003;25631;51.516;-0.470;2023-11-21T03:21:32;6;6;
39955;PMS5003;25631;51.516;-0.470;2023-11-21T03:24:09;14;11;
39955;PMS5003;25631;51.516;-0.470;2023-11-21T03:26:45;12;11;
39955;PMS5003;25631;51.516;-0.470;2023-11-21T03:29:22;10;7;
39955;PMS5003;25631;51.516;-0.470;2023-11-21T03:31:58;9;6;
39955;PMS5003;25631;51.516;-0.470;2023-11-21T03:34:34;10;7;
39955;PMS5003;25631;51.516;-0.470;2023-11-21T03:37:11;10;8;
39955;PMS5003;25631;51.516;-0.470;2023-11-21T03:39:47;11;8;
39955;PMS5003;25631;51.516;-0.470;2023-11-21T03:42:24;7;6;
39955;PMS5003;25631;51.516;-0.470;2023-11-21T03:45:01;9;6;
39955;PMS5003;25631;51.516;-0.470;2023-11-21T03:47:37;9;5;
39955;PMS5003;25631;51.516;-0.470;2023-11-21T03:50:14;6;5;
39955;PMS5003;25631;51.516;-0.470;2023-11-21T03:52:50;5;3;
39955;PMS5003;25631;51.516;-0.470;2023-11-21T03:55:26;4;3;
39955;PMS5003;25631;51.516;-0.470;2023-11-21T03:58:02;10;9;
39955;PMS5003;25631;51.516;-0.470;2023-11-21T04:00:39;10;9;
39955;PMS5003;25631;51.516;-0.470;2023-11-21T04:03:15;13;11;
39955;PMS5003;25631;51.516;-0.470;2023-11-21T04:05:51;9;9;
39955;PMS5003;25631;51.516;-0.470;2023-11-21T04:08:28;9;9;
39955;PMS5003;25631;51.516;-0.470;2023-11-21T04:11:04;6;5;
39955;PMS5003;25631;51.516;-0.470;2023-11-21T04:13:41;7;6;
39955;PMS5003;25631;51.516;-0.470;2023-11-21T04:16:17;8;7;
39955;PMS5003;25631;51.516;-0.470;2023-11-21T04:18:54;10;8;
39955;PMS5003;25631;51.516;-0.470;2023-11-21T04:21:30;9;7;
39955;PMS5003;25631;51.516;-0.470;2023-11-21T04:24:07;7;5;
39955;PMS5003;25631;51.516;-0.470;2023-11-21T04:26:43;10;6;
39955;PMS5003;25631;51.516;-0.470;2023-11-21T04:29:20;11;7;
39955;PMS5003;25631;51.516;-0.470;2023-11-21T04:31:56;8;8;
39955;PMS5003;25631;51.516;-0.470;2023-11-21T04:34:33;8;8;
39955;PMS5003;25631;51.516;-0.470;2023-11-21T04:37:09;6;5;
39955;PMS5003;25631;51.516;-0.470;2023-11-21T04:39:46;10;7;
39955;PMS5003;25631;51.516;-0.470;2023-11-21T04:42:22;12;9;
39955;PMS5003;25631;51.516;-0.470;2023-11-21T04:44:58;8;8;
39955;PMS5003;25631;51.516;-0.470;2023-11-21T04:47:34;10;9;
39955;PMS5003;25631;51.516;-0.470;2023-11-21T04:50:11;6;4;
39955;PMS5003;25631;51.516;-0.470;2023-11-21T04:52:47;5;3;
39955;PMS5003;25631;51.516;-0.470;2023-11-21T04:55:23;4;4;
39955;PMS5003;25631;51.516;-0.470;2023-11-21T04:58:00;4;4;
39955;PMS5003;25631;51.516;-0.470;2023-11-21T05:00:36;3;3;
39955;PMS5003;25631;51.516;-0.470;2023-11-21T05:03:12;5;5;
39955;PMS5003;25631;51.516;-0.470;2023-11-21T05:05:48;5;3;
39955;PMS5003;25631;51.516;-0.470;2023-11-21T05:08:25;4;2;
39955;PMS5003;25631;51.516;-0.470;2023-11-21T05:11:01;3;3;
39955;PMS5003;25631;51.516;-0.470;2023-11-21T05:13:38;2;2;
39955;PMS5003;25631;51.516;-0.470;2023-11-21T05:16:14;4;4;
39955;PMS5003;25631;51.516;-0.470;2023-11-21T05:18:50;5;4;
39955;PMS5003;25631;51.516;-0.470;2023-11-21T05:21:27;7;5;
39955;PMS5003;25631;51.516;-0.470;2023-11-21T05:24:04;3;3;
39955;PMS5003;25631;51.516;-0.470;2023-11-21T05:26:41;6;4;
39955;PMS5003;25631;51.516;-0.470;2023-11-21T05:29:17;5;4;
39955;PMS5003;25631;51.516;-0.470;2023-11-21T05:31:53;5;5;
39955;PMS5003;25631;51.516;-0.470;2023-11-21T05:34:30;5;4;
39955;PMS5003;25631;51.516;-0.470;2023-11-21T05:37:06;6;6;
39955;PMS5003;25631;51.516;-0.470;2023-11-21T05:39:42;5;5;
39955;PMS5003;25631;51.516;-0.470;2023-11-21T05:42:18;5;5;
39955;PMS5003;25631;51.516;-0.470;2023-11-21T05:44:55;7;6;
39955;PMS5003;25631;51.516;-0.470;2023-11-21T05:47:31;9;9;
39955;PMS5003;25631;51.516;-0.470;2023-11-21T05:50:08;6;5;
39955;PMS5003;25631;51.516;-0.470;2023-11-21T05:52:46;6;5;
39955;PMS5003;25631;51.516;-0.470;2023-11-21T05:55:23;6;4;
39955;PMS5003;25631;51.516;-0.470;2023-11-21T05:57:59;9;3;
39955;PMS5003;25631;51.516;-0.470;2023-11-21T06:00:36;5;2;
39955;PMS5003;25631;51.516;-0.470;2023-11-21T06:03:12;5;2;
39955;PMS5003;25631;51.516;-0.470;2023-11-21T06:05:49;3;2;
39955;PMS5003;25631;51.516;-0.470;2023-11-21T06:08:25;5;2;
39955;PMS5003;25631;51.516;-0.470;2023-11-21T06:11:01;5;4;
39955;PMS5003;25631;51.516;-0.470;2023-11-21T06:13:38;4;4;
39955;PMS5003;25631;51.516;-0.470;2023-11-21T06:16:14;4;4;
39955;PMS5003;25631;51.516;-0.470;2023-11-21T06:18:51;8;6;
39955;PMS5003;25631;51.516;-0.470;2023-11-21T06:21:27;8;6;
39955;PMS5003;25631;51.516;-0.470;2023-11-21T06:24:04;7;6;
39955;PMS5003;25631;51.516;-0.470;2023-11-21T06:26:40;9;6;
39955;PMS5003;25631;51.516;-0.470;2023-11-21T06:29:17;8;5;
39955;PMS5003;25631;51.516;-0.470;2023-11-21T06:31:53;4;3;
39955;PMS5003;25631;51.516;-0.470;2023-11-21T06:34:29;12;7;
39955;PMS5003;25631;51.516;-0.470;2023-11-21T06:37:06;10;6;
39955;PMS5003;25631;51.516;-0.470;2023-11-21T06:39:42;5;4;
39955;PMS5003;25631;51.516;-0.470;2023-11-21T06:42:18;5;4;
39955;PMS5003;25631;51.516;-0.470;2023-11-21T06:44:55;5;5;
39955;PMS5003;25631;51.516;-0.470;2023-11-21T06:47:33;4;3;
39955;PMS5003;25631;51.516;-0.470;2023-11-21T06:50:09;3;3;
39955;PMS5003;25631;51.516;-0.470;2023-11-21T06:52:45;6;2;
39955;PMS5003;25631;51.516;-0.470;2023-11-21T06:55:22;7;2;
39955;PMS5003;25631;51.516;-0.470;2023-11-21T06:57:58;5;3;
39955;PMS5003;25631;51.516;-0.470;2023-11-21T07:00:35;5;3;
39955;PMS5003;25631;51.516;-0.470;2023-11-21T07:03:11;4;3;
39955;PMS5003;25631;51.516;-0.470;2023-11-21T07:05:47;2;2;
39955;PMS5003;25631;51.516;-0.470;2023-11-21T07:08:24;4;3;
39955;PMS5003;25631;51.516;-0.470;2023-11-21T07:11:00;4;3;
39955;PMS5003;25631;51.516;-0.470;2023-11-21T07:13:37;9;6;
39955;PMS5003;25631;51.516;-0.470;2023-11-21T07:16:14;9;6;
39955;PMS5003;25631;51.516;-0.470;2023-11-21T07:18:50;5;4;
39955;PMS5003;25631;51.516;-0.470;2023-11-21T07:21:26;6;5;
39955;PMS5003;25631;51.516;-0.470;2023-11-21T07:24:03;6;4;
39955;PMS5003;25631;51.516;-0.470;2023-11-21T07:26:40;2;2;
39955;PMS5003;25631;51.516;-0.470;2023-11-21T07:29:16;2;2;
39955;PMS5003;25631;51.516;-0.470;2023-11-21T07:31:53;3;2;
39955;PMS5003;25631;51.516;-0.470;2023-11-21T07:34:29;3;2;
39955;PMS5003;25631;51.516;-0.470;2023-11-21T07:37:06;2;2;
39955;PMS5003;25631;51.516;-0.470;2023-11-21T07:39:42;4;3;
39955;PMS5003;25631;51.516;-0.470;2023-11-21T07:42:19;5;3;
39955;PMS5003;25631;51.516;-0.470;2023-11-21T07:44:55;6;4;
39955;PMS5003;25631;51.516;-0.470;2023-11-21T07:47:32;3;3;
39955;PMS5003;25631;51.516;-0.470;2023-11-21T07:50:09;3;3;
39955;PMS5003;25631;51.516;-0.470;2023-11-21T07:52:45;5;3;
39955;PMS5003;25631;51.516;-0.470;2023-11-21T07:55:22;4;3;
39955;PMS5003;25631;51.516;-0.470;2023-11-21T07:57:58;10;7;
39955;PMS5003;25631;51.516;-0.470;2023-11-21T08:00:34;4;3;
39955;PMS5003;25631;51.516;-0.470;2023-11-21T08:03:11;5;3;
39955;PMS5003;25631;51.516;-0.470;2023-11-21T08:05:49;4;3;
39955;PMS5003;25631;51.516;-0.470;2023-11-21T08:08:25;5;3;
39955;PMS5003;25631;51.516;-0.470;2023-11-21T08:11:01;4;3;
39955;PMS5003;25631;51.516;-0.470;2023-11-21T08:13:38;3;2;
39955;PMS5003;25631;51.516;-0.470;2023-11-21T08:16:14;3;2;
39955;PMS5003;25631;51.516;-0.470;2023-11-21T08:18:51;3;3;
39955;PMS5003;25631;51.516;-0.470;2023-11-21T08:21:27;2;2;
39955;PMS5003;25631;51.516;-0.470;2023-11-21T08:24:04;3;3;
39955;PMS5003;25631;51.516;-0.470;2023-11-21T08:26:41;5;4;
39955;PMS5003;25631;51.516;-0.470;2023-11-21T08:29:17;4;4;
39955;PMS5003;25631;51.516;-0.470;2023-11-21T08:31:54;3;3;
39955;PMS5003;25631;51.516;-0.470;2023-11-21T08:34:30;5;5;
39955;PMS5003;25631;51.516;-0.470;2023-11-21T08:37:06;5;5;
39955;PMS5003;25631;51.516;-0.470;2023-11-21T08:39:43;12;6;
39955;PMS5003;25631;51.516;-0.470;2023-11-21T08:42:19;10;5;
39955;PMS5003;25631;51.516;-0.470;2023-11-21T08:44:56;10;5;
39955;PMS5003;25631;51.516;-0.470;2023-11-21T08:47:32;3;2;
39955;PMS5003;25631;51.516;-0.470;2023-11-21T08:50:09;2;1;
39955;PMS5003;25631;51.516;-0.470;2023-11-21T08:52:46;2;1;
39955;PMS5003;25631;51.516;-0.470;2023-11-21T08:55:23;5;4;
39955;PMS5003;25631;51.516;-0.470;2023-11-21T08:57:59;4;4;
39955;PMS5003;25631;51.516;-0.470;2023-11-21T09:00:35;4;4;
39955;PMS5003;25631;51.516;-0.470;2023-11-21T09:03:12;5;4;
39955;PMS5003;25631;51.516;-0.470;2023-11-21T09:05:48;4;3;
39955;PMS5003;25631;51.516;-0.470;2023-11-21T09:08:25;3;2;
39955;PMS5003;25631;51.516;-0.470;2023-11-21T09:11:01;4;3;
39955;PMS5003;25631;51.516;-0.470;2023-11-21T09:13:37;9;8;
39955;PMS5003;25631;51.516;-0.470;2023-11-21T09:16:14;7;5;
39955;PMS5003;25631;51.516;-0.470;2023-11-21T09:18:50;6;5;
39955;PMS5003;25631;51.516;-0.470;2023-11-21T09:21:26;3;3;
39955;PMS5003;25631;51.516;-0.470;2023-11-21T09:24:03;4;4;
39955;PMS5003;25631;51.516;-0.470;2023-11-21T09:26:40;4;3;
39955;PMS5003;25631;51.516;-0.470;2023-11-21T09:29:17;3;3;
39955;PMS5003;25631;51.516;-0.470;2023-11-21T09:31:53;2;2;
39955;PMS5003;25631;51.516;-0.470;2023-11-21T09:34:29;5;2;
39955;PMS5003;25631;51.516;-0.470;2023-11-21T09:37:06;4;3;
39955;PMS5003;25631;51.516;-0.470;2023-11-21T09:39:43;4;4;
39955;PMS5003;25631;51.516;-0.470;2023-11-21T09:42:20;5;3;
39955;PMS5003;25631;51.516;-0.470;2023-11-21T09:45:03;2;2;
39955;PMS5003;25631;51.516;-0.470;2023-11-21T09:47:43;2;2;
39955;PMS5003;25631;51.516;-0.470;2023-11-21T09:50:21;2;2;
39955;PMS5003;25631;51.516;-0.470;2023-11-21T09:53:00;5;4;
39955;PMS5003;25631;51.516;-0.470;2023-11-21T09:55:45;4;4;
39955;PMS5003;25631;51.516;-0.470;2023-11-21T09:58:23;4;4;
39955;PMS5003;25631;51.516;-0.470;2023-11-21T10:00:59;6;4;
39955;PMS5003;25631;51.516;-0.470;2023-11-21T10:03:37;5;3;
39955;PMS5003;25631;51.516;-0.470;2023-11-21T10:06:13;6;4;
39955;PMS5003;25631;51.516;-0.470;2023-11-21T10:08:50;2;1;
39955;PMS5003;25631;51.516;-0.470;2023-11-21T10:11:27;3;2;
39955;PMS5003;25631;51.516;-0.470;2023-11-21T10:14:05;4;4;
39955;PMS5003;25631;51.516;-0.470;2023-11-21T10:16:43;4;4;
39955;PMS5003;25631;51.516;-0.470;2023-11-21T10:19:21;3;3;
39955;PMS5003;25631;51.516;-0.470;2023-11-21T10:21:58;3;2;
39955;PMS5003;25631;51.516;-0.470;2023-11-21T10:24:37;3;3;
39955;PMS5003;25631;51.516;-0.470;2023-11-21T10:27:13;4;2;
39955;PMS5003;25631;51.516;-0.470;2023-11-21T10:29:51;4;2;
39955;PMS5003;25631;51.516;-0.470;2023-11-21T10:32:28;2;1;
39955;PMS5003;25631;51.516;-0.470;2023-11-21T10:35:04;1;1;
39955;PMS5003;25631;51.516;-0.470;2023-11-21T10:37:41;1;1;
39955;PMS5003;25631;51.516;-0.470;2023-11-21T10:40:18;1;0;
39955;PMS5003;25631;51.516;-0.470;2023-11-21T10:42:57;2;1;
39955;PMS5003;25631;51.516;-0.470;2023-11-21T10:45:42;3;2;
39955;PMS5003;25631;51.516;-0.470;2023-11-21T10:48:19;3;3;
39955;PMS5003;25631;51.516;-0.470;2023-11-21T10:50:56;3;2;
39955;PMS5003;25631;51.516;-0.470;2023-11-21T10:53:33;3;2;
39955;PMS5003;25631;51.516;-0.470;2023-11-21T10:56:09;1;1;
39955;PMS5003;25631;51.516;-0.470;2023-11-21T10:58:50;1;1;
39955;PMS5003;25631;51.516;-0.470;2023-11-21T11:01:26;2;1;
39955;PMS5003;25631;51.516;-0.470;2023-11-21T11:04:05;1;1;
39955;PMS5003;25631;51.516;-0.470;2023-11-21T11:06:43;0;0;
39955;PMS5003;25631;51.516;-0.470;2023-11-21T11:09:21;4;2;
39955;PMS5003;25631;51.516;-0.470;2023-11-21T11:11:58;3;2;
39955;PMS5003;25631;51.516;-0.470;2023-11-21T11:14:35;2;1;
39955;PMS5003;25631;51.516;-0.470;2023-11-21T11:17:12;2;2;
39955;PMS5003;25631;51.516;-0.470;2023-11-21T11:19:49;0;0;
39955;PMS5003;25631;51.516;-0.470;2023-11-21T11:22:29;2;2;
39955;PMS5003;25631;51.516;-0.470;2023-11-21T11:25:27;3;2;
39955;PMS5003;25631;51.516;-0.470;2023-11-21T11:28:11;2;2;
39955;PMS5003;25631;51.516;-0.470;2023-11-21T11:31:07;4;4;
39955;PMS5003;25631;51.516;-0.470;2023-11-21T11:33:56;4;4;
39955;PMS5003;25631;51.516;-0.470;2023-11-21T11:36:36;3;1;
39955;PMS5003;25631;51.516;-0.470;2023-11-21T11:39:26;2;1;
39955;PMS5003;25631;51.516;-0.470;2023-11-21T11:42:05;2;0;
39955;PMS5003;25631;51.516;-0.470;2023-11-21T11:44:47;1;0;
39955;PMS5003;25631;51.516;-0.470;2023-11-21T11:47:26;1;1;
39955;PMS5003;25631;51.516;-0.470;2023-11-21T11:50:04;0;0;
39955;PMS5003;25631;51.516;-0.470;2023-11-21T11:52:42;0;0;
39955;PMS5003;25631;51.516;-0.470;2023-11-21T11:55:19;1;1;
39955;PMS5003;25631;51.516;-0.470;2023-11-21T11:57:57;2;2;
39955;PMS5003;25631;51.516;-0.470;2023-11-21T12:00:35;3;2;
39955;PMS5003;25631;51.516;-0.470;2023-11-21T12:03:12;1;1;
39955;PMS5003;25631;51.516;-0.470;2023-11-21T12:05:49;1;1;
39955;PMS5003;25631;51.516;-0.470;2023-11-21T12:08:25;2;1;
39955;PMS5003;25631;51.516;-0.470;2023-11-21T12:11:04;2;1;
39955;PMS5003;25631;51.516;-0.470;2023-11-21T12:13:41;2;1;
39955;PMS5003;25631;51.516;-0.470;2023-11-21T12:16:18;2;1;
39955;PMS5003;25631;51.516;-0.470;2023-11-21T12:18:55;4;2;
39955;PMS5003;25631;51.516;-0.470;2023-11-21T12:21:31;4;1;
39955;PMS5003;25631;51.516;-0.470;2023-11-21T12:24:08;5;4;
39955;PMS5003;25631;51.516;-0.470;2023-11-21T12:26:45;3;3;
39955;PMS5003;25631;51.516;-0.470;2023-11-21T12:29:22;6;5;
39955;PMS5003;25631;51.516;-0.470;2023-11-21T12:31:58;5;5;
39955;PMS5003;25631;51.516;-0.470;2023-11-21T12:34:34;5;5;
39955;PMS5003;25631;51.516;-0.470;2023-11-21T12:37:11;5;2;
39955;PMS5003;25631;51.516;-0.470;2023-11-21T12:39:47;7;3;
39955;PMS5003;25631;51.516;-0.470;2023-11-21T12:42:24;3;2;
39955;PMS5003;25631;51.516;-0.470;2023-11-21T12:45:08;3;2;
39955;PMS5003;25631;51.516;-0.470;2023-11-21T12:47:54;2;1;
39955;PMS5003;25631;51.516;-0.470;2023-11-21T12:50:32;5;4;
39955;PMS5003;25631;51.516;-0.470;2023-11-21T12:53:10;5;4;
39955;PMS5003;25631;51.516;-0.470;2023-11-21T12:55:47;4;2;
39955;PMS5003;25631;51.516;-0.470;2023-11-21T12:58:23;3;2;
39955;PMS5003;25631;51.516;-0.470;2023-11-21T13:01:00;4;2;
39955;PMS5003;25631;51.516;-0.470;2023-11-21T13:03:37;4;4;
39955;PMS5003;25631;51.516;-0.470;2023-11-21T13:06:14;4;3;
39955;PMS5003;25631;51.516;-0.470;2023-11-21T13:08:50;5;3;
39955;PMS5003;25631;51.516;-0.470;2023-11-21T13:11:27;6;4;
39955;PMS5003;25631;51.516;-0.470;2023-11-21T13:14:03;7;4;
39955;PMS5003;25631;51.516;-0.470;2023-11-21T13:16:40;1;0;
39955;PMS5003;25631;51.516;-0.470;2023-11-21T13:19:16;1;0;
39955;PMS5003;25631;51.516;-0.470;2023-11-21T13:21:52;6;4;
39955;PMS5003;25631;51.516;-0.470;2023-11-21T13:24:29;6;5;
39955;PMS5003;25631;51.516;-0.470;2023-11-21T13:27:05;6;5;
39955;PMS5003;25631;51.516;-0.470;2023-11-21T13:29:41;1;0;
39955;PMS5003;25631;51.516;-0.470;2023-11-21T13:32:18;2;0;
39955;PMS5003;25631;51.516;-0.470;2023-11-21T13:34:54;1;1;
39955;PMS5003;25631;51.516;-0.470;2023-11-21T13:37:30;2;1;
39955;PMS5003;25631;51.516;-0.470;2023-11-21T13:40:07;2;1;
39955;PMS5003;25631;51.516;-0.470;2023-11-21T13:42:44;2;1;
39955;PMS5003;25631;51.516;-0.470;2023-11-21T13:45:21;3;1;
39955;PMS5003;25631;51.516;-0.470;2023-11-21T13:47:58;2;1;
39955;PMS5003;25631;51.516;-0.470;2023-11-21T13:50:34;1;1;
39955;PMS5003;25631;51.516;-0.470;2023-11-21T13:53:11;1;1;
39955;PMS5003;25631;51.516;-0.470;2023-11-21T13:55:47;1;1;
39955;PMS5003;25631;51.516;-0.470;2023-11-21T13:58:24;1;1;
39955;PMS5003;25631;51.516;-0.470;2023-11-21T14:01:05;1;1;
39955;PMS5003;25631;51.516;-0.470;2023-11-21T14:03:42;1;1;
39955;PMS5003;25631;51.516;-0.470;2023-11-21T14:06:18;2;2;
39955;PMS5003;25631;51.516;-0.470;2023-11-21T14:08:55;2;2;
39955;PMS5003;25631;51.516;-0.470;2023-11-21T14:11:31;2;2;
39955;PMS5003;25631;51.516;-0.470;2023-11-21T14:14:07;3;3;
39955;PMS5003;25631;51.516;-0.470;2023-11-21T14:16:44;5;4;
39955;PMS5003;25631;51.516;-0.470;2023-11-21T14:19:20;5;5;
39955;PMS5003;25631;51.516;-0.470;2023-11-21T14:21:57;4;4;
39955;PMS5003;25631;51.516;-0.470;2023-11-21T14:24:33;4;3;
39955;PMS5003;25631;51.516;-0.470;2023-11-21T14:27:09;4;3;
39955;PMS5003;25631;51.516;-0.470;2023-11-21T14:29:46;12;8;
39955;PMS5003;25631;51.516;-0.470;2023-11-21T14:32:22;11;8;
39955;PMS5003;25631;51.516;-0.470;2023-11-21T14:34:58;11;8;
39955;PMS5003;25631;51.516;-0.470;2023-11-21T14:37:35;5;5;
39955;PMS5003;25631;51.516;-0.470;2023-11-21T14:40:12;5;5;
39955;PMS5003;25631;51.516;-0.470;2023-11-21T14:42:48;0;0;
39955;PMS5003;25631;51.516;-0.470;2023-11-21T14:45:24;0;0;
39955;PMS5003;25631;51.516;-0.470;2023-11-21T14:48:01;1;1;
39955;PMS5003;25631;51.516;-0.470;2023-11-21T14:50:37;0;0;
39955;PMS5003;25631;51.516;-0.470;2023-11-21T14:53:14;0;0;
39955;PMS5003;25631;51.516;-0.470;2023-11-21T14:55:50;3;3;
39955;PMS5003;25631;51.516;-0.470;2023-11-21T14:58:26;3;3;
39955;PMS5003;25631;51.516;-0.470;2023-11-21T15:01:03;2;2;
39955;PMS5003;25631;51.516;-0.470;2023-11-21T15:03:39;4;4;
39955;PMS5003;25631;51.516;-0.470;2023-11-21T15:06:16;4;3;
39955;PMS5003;25631;51.516;-0.470;2023-11-21T15:08:53;1;1;
39955;PMS5003;25631;51.516;-0.470;2023-11-21T15:11:30;1;1;
39955;PMS5003;25631;51.516;-0.470;2023-11-21T15:14:06;1;1;
39955;PMS5003;25631;51.516;-0.470;2023-11-21T15:16:43;1;1;
39955;PMS5003;25631;51.516;-0.470;2023-11-21T15:19:19;1;1;
39955;PMS5003;25631;51.516;-0.470;2023-11-21T15:21:56;1;1;
39955;PMS5003;25631;51.516;-0.470;2023-11-21T15:24:32;4;3;
39955;PMS5003;25631;51.516;-0.470;2023-11-21T15:27:09;3;3;
39955;PMS5003;25631;51.516;-0.470;2023-11-21T15:29:45;6;6;
39955;PMS5003;25631;51.516;-0.470;2023-11-21T15:32:21;5;5;
39955;PMS5003;25631;51.516;-0.470;2023-11-21T15:34:58;3;3;
39955;PMS5003;25631;51.516;-0.470;2023-11-21T15:37:34;4;4;
39955;PMS5003;25631;51.516;-0.470;2023-11-21T15:40:11;4;4;
39955;PMS5003;25631;51.516;-0.470;2023-11-21T15:42:47;6;5;
39955;PMS5003;25631;51.516;-0.470;2023-11-21T15:45:24;7;5;
39955;PMS5003;25631;51.516;-0.470;2023-11-21T15:48:00;6;4;
39955;PMS5003;25631;51.516;-0.470;2023-11-21T15:50:37;4;4;
39955;PMS5003;25631;51.516;-0.470;2023-11-21T15:53:13;4;4;
39955;PMS5003;25631;51.516;-0.470;2023-11-21T15:55:49;4;4;
39955;PMS5003;25631;51.516;-0.470;2023-11-21T15:58:26;4;4;
39955;PMS5003;25631;51.516;-0.470;2023-11-21T16:01:02;4;4;
39955;PMS5003;25631;51.516;-0.470;2023-11-21T16:03:38;4;3;
39955;PMS5003;25631;51.516;-0.470;2023-11-21T16:06:15;4;4;
39955;PMS5003;25631;51.516;-0.470;2023-11-21T16:08:51;5;5;
39955;PMS5003;25631;51.516;-0.470;2023-11-21T16:11:28;10;6;
39955;PMS5003;25631;51.516;-0.470;2023-11-21T16:14:04;11;6;
39955;PMS5003;25631;51.516;-0.470;2023-11-21T16:16:40;8;8;
39955;PMS5003;25631;51.516;-0.470;2023-11-21T16:19:17;7;7;
39955;PMS5003;25631;51.516;-0.470;2023-11-21T16:21:53;7;7;
39955;PMS5003;25631;51.516;-0.470;2023-11-21T16:24:30;8;8;
39955;PMS5003;25631;51.516;-0.470;2023-11-21T16:27:06;7;6;
39955;PMS5003;25631;51.516;-0.470;2023-11-21T16:29:43;7;6;
39955;PMS5003;25631;51.516;-0.470;2023-11-21T16:32:19;3;3;
39955;PMS5003;25631;51.516;-0.470;2023-11-21T16:34:56;3;3;
39955;PMS5003;25631;51.516;-0.470;2023-11-21T16:37:32;12;9;
39955;PMS5003;25631;51.516;-0.470;2023-11-21T16:40:09;11;8;
39955;PMS5003;25631;51.516;-0.470;2023-11-21T16:42:46;3;3;
39955;PMS5003;25631;51.516;-0.470;2023-11-21T16:45:23;5;4;
39955;PMS5003;25631;51.516;-0.470;2023-11-21T16:48:00;3;2;
39955;PMS5003;25631;51.516;-0.470;2023-11-21T16:50:36;8;6;
39955;PMS5003;25631;51.516;-0.470;2023-11-21T16:53:12;7;5;
39955;PMS5003;25631;51.516;-0.470;2023-11-21T16:55:48;7;6;
39955;PMS5003;25631;51.516;-0.470;2023-11-21T16:58:25;3;2;
39955;PMS5003;25631;51.516;-0.470;2023-11-21T17:01:01;4;3;
39955;PMS5003;25631;51.516;-0.470;2023-11-21T17:03:37;6;5;
39955;PMS5003;25631;51.516;-0.470;2023-11-21T17:06:14;5;5;
39955;PMS5003;25631;51.516;-0.470;2023-11-21T17:08:50;6;3;
39955;PMS5003;25631;51.516;-0.470;2023-11-21T17:11:27;7;3;
39955;PMS5003;25631;51.516;-0.470;2023-11-21T17:14:03;7;4;
39955;PMS5003;25631;51.516;-0.470;2023-11-21T17:16:41;5;5;
39955;PMS5003;25631;51.516;-0.470;2023-11-21T17:19:17;6;6;
39955;PMS5003;25631;51.516;-0.470;2023-11-21T17:21:53;6;6;
39955;PMS5003;25631;51.516;-0.470;2023-11-21T17:24:30;4;4;
39955;PMS5003;25631;51.516;-0.470;2023-11-21T17:27:06;5;4;
39955;PMS5003;25631;51.516;-0.470;2023-11-21T17:29:42;8;8;
39955;PMS5003;25631;51.516;-0.470;2023-11-21T17:32:19;7;7;